createdAt,value
2017-05-30T00:00:01.044Z,24.08
2017-05-30T00:01:01.027Z,24.06
2017-05-30T00:02:01.010Z,24.06
2017-05-30T00:03:00.993Z,24.04
2017-05-30T00:04:01.010Z,24
2017-05-30T00:05:00.963Z,23.94
2017-05-30T00:06:00.931Z,23.94
2017-05-30T00:07:00.924Z,23.97
2017-05-30T00:08:00.907Z,23.94
2017-05-30T00:09:00.887Z,23.97
2017-05-30T00:10:00.872Z,23.92
2017-05-30T00:11:00.851Z,23.96
2017-05-30T00:12:00.835Z,23.94
2017-05-30T00:13:00.821Z,23.94
2017-05-30T00:14:00.848Z,23.97
2017-05-30T00:15:00.781Z,23.97
2017-05-30T00:16:00.767Z,23.96
2017-05-30T00:17:00.749Z,23.97
2017-05-30T00:18:00.733Z,23.94
2017-05-30T00:19:00.723Z,23.99
2017-05-30T00:20:00.700Z,23.97
2017-05-30T00:21:00.679Z,23.97
2017-05-30T00:22:00.664Z,24
2017-05-30T00:23:00.648Z,23.99
2017-05-30T00:24:00.633Z,24.09
2017-05-30T00:25:00.612Z,24.02
2017-05-30T00:26:00.594Z,23.96
2017-05-30T00:27:00.574Z,24.06
2017-05-30T00:28:00.555Z,24.06
2017-05-30T00:29:00.591Z,24.11
2017-05-30T00:30:00.517Z,23.96
2017-05-30T00:31:00.500Z,23.94
2017-05-30T00:32:00.193Z,23.94
2017-05-30T00:33:00.478Z,23.92
2017-05-30T00:34:00.454Z,23.87
2017-05-30T00:35:00.445Z,23.89
2017-05-30T00:36:00.417Z,23.81
2017-05-30T00:37:00.400Z,23.84
2017-05-30T00:38:00.385Z,23.71
2017-05-30T00:39:00.368Z,23.69
2017-05-30T00:40:00.359Z,23.6
2017-05-30T00:41:00.329Z,23.67
2017-05-30T00:42:00.364Z,23.62
2017-05-30T00:43:00.296Z,23.56
2017-05-30T00:44:00.287Z,23.56
2017-05-30T00:45:00.270Z,23.49
2017-05-30T00:46:00.253Z,23.49
2017-05-30T00:47:00.232Z,23.47
2017-05-30T00:48:00.219Z,23.5
2017-05-30T00:49:00.193Z,23.44
2017-05-30T00:50:00.189Z,23.41
2017-05-30T00:51:00.159Z,23.37
2017-05-30T00:52:00.141Z,23.31
2017-05-30T00:53:00.126Z,23.21
2017-05-30T00:54:00.109Z,23.19
2017-05-30T00:55:00.095Z,23.18
2017-05-30T00:56:00.065Z,23.03
2017-05-30T00:57:00.053Z,23.07
2017-05-30T00:58:00.042Z,23.16
2017-05-30T00:58:59.710Z,23.16
2017-05-30T01:00:00.052Z,23.15
2017-05-30T01:00:59.982Z,22.97
2017-05-30T01:01:59.963Z,22.99
2017-05-30T01:02:59.942Z,23.03
2017-05-30T01:03:59.945Z,22.88
2017-05-30T01:04:59.934Z,22.91
2017-05-30T01:05:59.890Z,22.88
2017-05-30T01:06:59.883Z,22.84
2017-05-30T01:07:59.873Z,22.81
2017-05-30T01:08:59.844Z,22.85
2017-05-30T01:09:59.827Z,22.86
2017-05-30T01:10:59.498Z,22.82
2017-05-30T01:11:59.781Z,22.79
2017-05-30T01:12:59.774Z,22.78
2017-05-30T01:13:59.801Z,22.84
2017-05-30T01:14:59.735Z,22.79
2017-05-30T01:15:59.716Z,22.81
2017-05-30T01:16:59.695Z,22.74
2017-05-30T01:17:59.683Z,22.75
2017-05-30T01:18:59.660Z,22.75
2017-05-30T01:19:59.702Z,22.67
2017-05-30T01:20:59.624Z,22.7
2017-05-30T01:21:59.597Z,22.67
2017-05-30T01:22:59.584Z,22.63
2017-05-30T01:23:59.574Z,22.69
2017-05-30T01:24:59.549Z,22.67
2017-05-30T01:25:59.532Z,22.59
2017-05-30T01:26:59.520Z,22.61
2017-05-30T01:27:59.498Z,22.59
2017-05-30T01:28:59.485Z,22.56
2017-05-30T01:29:59.457Z,22.66
2017-05-30T01:30:59.446Z,22.6
2017-05-30T01:31:59.429Z,22.6
2017-05-30T01:32:59.404Z,22.57
2017-05-30T01:33:59.387Z,22.6
2017-05-30T01:34:59.371Z,22.56
2017-05-30T01:35:59.368Z,22.57
2017-05-30T01:36:59.339Z,22.45
2017-05-30T01:37:59.331Z,22.59
2017-05-30T01:38:58.999Z,22.46
2017-05-30T01:39:59.288Z,22.44
2017-05-30T01:40:59.280Z,22.57
2017-05-30T01:41:59.246Z,22.56
2017-05-30T01:42:59.228Z,22.51
2017-05-30T01:43:59.221Z,22.52
2017-05-30T01:44:59.204Z,22.51
2017-05-30T01:45:59.198Z,22.46
2017-05-30T01:46:59.159Z,22.45
2017-05-30T01:47:59.134Z,22.44
2017-05-30T01:48:59.140Z,22.46
2017-05-30T01:49:59.113Z,22.45
2017-05-30T01:50:59.097Z,22.56
2017-05-30T01:51:59.059Z,22.42
2017-05-30T01:52:59.056Z,22.49
2017-05-30T01:53:59.092Z,22.49
2017-05-30T01:54:59.024Z,22.57
2017-05-30T01:55:58.994Z,22.56
2017-05-30T01:56:58.972Z,22.46
2017-05-30T01:57:58.960Z,22.49
2017-05-30T01:58:58.946Z,22.48
2017-05-30T01:59:58.919Z,22.45
2017-05-30T02:00:58.903Z,22.46
2017-05-30T02:01:58.891Z,22.49
2017-05-30T02:02:58.869Z,22.51
2017-05-30T02:03:58.856Z,22.49
2017-05-30T02:04:58.826Z,22.46
2017-05-30T02:05:58.817Z,22.48
2017-05-30T02:06:58.792Z,22.49
2017-05-30T02:07:58.784Z,22.51
2017-05-30T02:08:58.758Z,22.52
2017-05-30T02:09:58.741Z,22.46
2017-05-30T02:10:58.735Z,22.52
2017-05-30T02:11:58.706Z,22.54
2017-05-30T02:12:58.735Z,22.41
2017-05-30T02:13:58.674Z,22.48
2017-05-30T02:14:58.657Z,22.41
2017-05-30T02:15:58.631Z,22.35
2017-05-30T02:16:58.614Z,22.3
2017-05-30T02:17:58.902Z,22.38
2017-05-30T02:18:58.582Z,22.35
2017-05-30T02:19:58.570Z,22.27
2017-05-30T02:20:58.649Z,22.31
2017-05-30T02:21:58.522Z,22.27
2017-05-30T02:22:58.505Z,22.17
2017-05-30T02:23:58.499Z,22.29
2017-05-30T02:24:58.473Z,22.24
2017-05-30T02:25:58.451Z,22.15
2017-05-30T02:26:58.131Z,22.2
2017-05-30T02:27:58.481Z,22.26
2017-05-30T02:28:58.401Z,22.17
2017-05-30T02:29:58.381Z,22.12
2017-05-30T02:30:58.355Z,22.17
2017-05-30T02:31:58.337Z,22.19
2017-05-30T02:32:58.324Z,22.17
2017-05-30T02:33:58.304Z,22.12
2017-05-30T02:34:58.283Z,22.14
2017-05-30T02:35:58.316Z,22.11
2017-05-30T02:36:58.250Z,22.14
2017-05-30T02:37:58.231Z,22.2
2017-05-30T02:38:58.212Z,22.17
2017-05-30T02:39:58.246Z,22.23
2017-05-30T02:40:58.177Z,22.2
2017-05-30T02:41:58.168Z,22.17
2017-05-30T02:42:58.137Z,22.12
2017-05-30T02:43:58.123Z,22.08
2017-05-30T02:44:58.108Z,22.12
2017-05-30T02:45:58.089Z,22.01
2017-05-30T02:46:58.068Z,22.01
2017-05-30T02:47:58.051Z,21.94
2017-05-30T02:48:58.040Z,21.98
2017-05-30T02:49:58.013Z,21.89
2017-05-30T02:50:57.998Z,21.81
2017-05-30T02:51:58.001Z,21.86
2017-05-30T02:52:57.968Z,21.85
2017-05-30T02:53:57.948Z,21.81
2017-05-30T02:54:57.923Z,21.83
2017-05-30T02:55:57.914Z,21.74
2017-05-30T02:56:57.891Z,21.81
2017-05-30T02:57:57.871Z,21.73
2017-05-30T02:58:57.855Z,21.79
2017-05-30T02:59:57.840Z,21.75
2017-05-30T03:00:57.830Z,21.82
2017-05-30T03:01:57.796Z,21.74
2017-05-30T03:02:57.784Z,21.81
2017-05-30T03:03:57.773Z,21.74
2017-05-30T03:04:57.493Z,21.73
2017-05-30T03:05:57.730Z,21.75
2017-05-30T03:06:57.709Z,21.79
2017-05-30T03:07:57.745Z,21.68
2017-05-30T03:08:57.676Z,21.75
2017-05-30T03:09:57.700Z,21.79
2017-05-30T03:10:57.635Z,21.73
2017-05-30T03:11:57.661Z,21.74
2017-05-30T03:12:57.705Z,21.73
2017-05-30T03:13:57.573Z,21.73
2017-05-30T03:14:57.560Z,21.77
2017-05-30T03:15:57.540Z,21.73
2017-05-30T03:16:57.569Z,21.75
2017-05-30T03:17:57.509Z,21.75
2017-05-30T03:18:57.241Z,21.68
2017-05-30T03:19:57.518Z,21.73
2017-05-30T03:20:57.451Z,21.74
2017-05-30T03:21:57.438Z,21.74
2017-05-30T03:22:57.408Z,21.73
2017-05-30T03:23:57.445Z,21.67
2017-05-30T03:24:57.380Z,21.66
2017-05-30T03:25:57.354Z,21.67
2017-05-30T03:26:57.341Z,21.68
2017-05-30T03:27:57.325Z,21.67
2017-05-30T03:28:57.307Z,21.67
2017-05-30T03:29:57.286Z,21.7
2017-05-30T03:30:57.263Z,21.73
2017-05-30T03:31:57.250Z,21.61
2017-05-30T03:32:57.230Z,21.71
2017-05-30T03:33:57.215Z,21.68
2017-05-30T03:34:57.196Z,21.68
2017-05-30T03:35:57.170Z,21.59
2017-05-30T03:36:57.157Z,21.64
2017-05-30T03:37:57.143Z,21.64
2017-05-30T03:38:57.125Z,21.67
2017-05-30T03:39:57.098Z,21.52
2017-05-30T03:40:57.084Z,21.52
2017-05-30T03:41:57.063Z,21.46
2017-05-30T03:42:57.050Z,21.56
2017-05-30T03:43:57.024Z,21.55
2017-05-30T03:44:57.007Z,21.49
2017-05-30T03:45:56.990Z,21.52
2017-05-30T03:46:56.969Z,21.51
2017-05-30T03:47:57.003Z,21.43
2017-05-30T03:48:56.934Z,21.38
2017-05-30T03:49:56.917Z,21.38
2017-05-30T03:50:56.897Z,21.36
2017-05-30T03:51:56.876Z,21.4
2017-05-30T03:52:56.870Z,21.33
2017-05-30T03:53:56.846Z,21.33
2017-05-30T03:54:56.831Z,21.3
2017-05-30T03:55:57.050Z,21.26
2017-05-30T03:56:56.787Z,21.26
2017-05-30T03:57:56.796Z,21.28
2017-05-30T03:58:56.755Z,21.24
2017-05-30T03:59:56.733Z,21.13
2017-05-30T04:00:56.710Z,21.13
2017-05-30T04:01:56.694Z,21.15
2017-05-30T04:02:56.678Z,21.18
2017-05-30T04:03:56.656Z,21.11
2017-05-30T04:04:56.641Z,21.16
2017-05-30T04:05:56.616Z,21.13
2017-05-30T04:06:56.602Z,21.18
2017-05-30T04:07:56.585Z,21.13
2017-05-30T04:08:56.625Z,21.11
2017-05-30T04:09:56.604Z,21.24
2017-05-30T04:10:56.530Z,21.11
2017-05-30T04:11:56.558Z,21.13
2017-05-30T04:12:56.486Z,21.13
2017-05-30T04:13:56.469Z,21.13
2017-05-30T04:14:56.504Z,21.11
2017-05-30T04:15:56.434Z,21.13
2017-05-30T04:16:56.419Z,21.13
2017-05-30T04:17:56.399Z,21.21
2017-05-30T04:18:56.506Z,21.12
2017-05-30T04:19:56.363Z,21.13
2017-05-30T04:20:56.043Z,21.24
2017-05-30T04:21:56.326Z,21.31
2017-05-30T04:22:56.305Z,21.24
2017-05-30T04:23:56.294Z,21.22
2017-05-30T04:24:55.968Z,21.26
2017-05-30T04:25:56.249Z,21.27
2017-05-30T04:26:56.224Z,21.28
2017-05-30T04:27:56.213Z,21.22
2017-05-30T04:28:56.198Z,21.36
2017-05-30T04:29:56.199Z,21.37
2017-05-30T04:30:56.163Z,21.28
2017-05-30T04:31:56.148Z,21.31
2017-05-30T04:32:56.124Z,21.37
2017-05-30T04:33:56.114Z,21.27
2017-05-30T04:34:56.086Z,21.33
2017-05-30T04:35:56.068Z,21.4
2017-05-30T04:36:56.055Z,21.48
2017-05-30T04:37:56.032Z,21.4
2017-05-30T04:38:56.016Z,21.43
2017-05-30T04:39:55.990Z,21.37
2017-05-30T04:40:56.230Z,21.55
2017-05-30T04:41:56.006Z,21.53
2017-05-30T04:42:55.987Z,21.48
2017-05-30T04:43:55.925Z,21.51
2017-05-30T04:44:55.903Z,21.55
2017-05-30T04:45:55.884Z,21.56
2017-05-30T04:46:55.864Z,21.67
2017-05-30T04:47:55.845Z,21.61
2017-05-30T04:48:55.827Z,21.64
2017-05-30T04:49:55.818Z,21.61
2017-05-30T04:50:55.795Z,21.68
2017-05-30T04:51:55.776Z,21.68
2017-05-30T04:52:55.756Z,21.74
2017-05-30T04:53:55.737Z,21.68
2017-05-30T04:54:55.726Z,21.64
2017-05-30T04:55:55.703Z,21.67
2017-05-30T04:56:55.688Z,21.73
2017-05-30T04:57:55.669Z,21.68
2017-05-30T04:58:55.647Z,21.63
2017-05-30T04:59:55.635Z,21.68
2017-05-30T05:00:55.617Z,21.7
2017-05-30T05:01:55.598Z,21.68
2017-05-30T05:02:55.641Z,21.73
2017-05-30T05:03:55.557Z,21.75
2017-05-30T05:04:55.551Z,21.77
2017-05-30T05:05:55.523Z,21.81
2017-05-30T05:06:55.507Z,21.83
2017-05-30T05:07:55.486Z,21.98
2017-05-30T05:08:55.479Z,21.96
2017-05-30T05:09:55.456Z,21.94
2017-05-30T05:10:55.435Z,22.04
2017-05-30T05:11:55.419Z,22.02
2017-05-30T05:12:55.396Z,22.09
2017-05-30T05:13:55.381Z,22.08
2017-05-30T05:14:55.376Z,22.12
2017-05-30T05:15:55.041Z,22.06
2017-05-30T05:16:55.328Z,22.11
2017-05-30T05:17:55.313Z,22.21
2017-05-30T05:18:55.297Z,22.35
2017-05-30T05:19:55.270Z,22.46
2017-05-30T05:20:54.957Z,22.6
2017-05-30T05:21:55.241Z,22.81
2017-05-30T05:22:55.224Z,22.86
2017-05-30T05:23:55.205Z,23.07
2017-05-30T05:24:55.198Z,23.22
2017-05-30T05:25:55.167Z,23.49
2017-05-30T05:26:55.162Z,23.56
2017-05-30T05:27:55.139Z,23.72
2017-05-30T05:28:55.119Z,23.92
2017-05-30T05:29:55.118Z,24.12
2017-05-30T05:30:55.126Z,24.21
2017-05-30T05:31:55.075Z,24.46
2017-05-30T05:32:55.064Z,24.48
2017-05-30T05:33:55.046Z,24.6
2017-05-30T05:34:55.037Z,24.61
2017-05-30T05:35:55.010Z,24.84
2017-05-30T05:36:55.043Z,25.01
2017-05-30T05:37:54.980Z,25.12
2017-05-30T05:38:54.973Z,25.29
2017-05-30T05:39:54.957Z,25.49
2017-05-30T05:40:54.936Z,25.74
2017-05-30T05:41:54.919Z,25.76
2017-05-30T05:42:54.922Z,26.01
2017-05-30T05:43:54.898Z,25.97
2017-05-30T05:44:54.580Z,26
2017-05-30T05:45:54.562Z,25.74
2017-05-30T05:46:54.850Z,25.51
2017-05-30T05:47:54.836Z,25.12
2017-05-30T05:48:54.817Z,24.86
2017-05-30T05:49:54.807Z,24.61
2017-05-30T05:50:54.796Z,24.44
2017-05-30T05:51:54.781Z,24.3
2017-05-30T05:52:54.760Z,24.16
2017-05-30T05:53:54.745Z,23.99
2017-05-30T05:54:54.742Z,24.06
2017-05-30T05:55:54.720Z,24.06
2017-05-30T05:56:54.703Z,24.06
2017-05-30T05:57:54.686Z,23.99
2017-05-30T05:58:54.669Z,24.27
2017-05-30T05:59:54.663Z,24.34
2017-05-30T06:00:54.643Z,24.53
2017-05-30T06:01:54.630Z,24.75
2017-05-30T06:02:54.611Z,24.93
2017-05-30T06:03:54.596Z,25.07
2017-05-30T06:04:54.581Z,25.17
2017-05-30T06:05:54.816Z,25.41
2017-05-30T06:06:54.553Z,25.44
2017-05-30T06:07:54.540Z,25.51
2017-05-30T06:08:54.520Z,25.64
2017-05-30T06:09:54.211Z,25.61
2017-05-30T06:10:54.493Z,25.61
2017-05-30T06:11:54.486Z,25.64
2017-05-30T06:12:54.465Z,25.78
2017-05-30T06:13:54.149Z,25.82
2017-05-30T06:14:54.439Z,25.94
2017-05-30T06:15:54.422Z,26.01
2017-05-30T06:16:54.408Z,26.04
2017-05-30T06:17:54.399Z,26.06
2017-05-30T06:18:54.089Z,26.04
2017-05-30T06:19:54.378Z,26.06
2017-05-30T06:20:54.357Z,25.94
2017-05-30T06:21:54.341Z,26.06
2017-05-30T06:22:54.341Z,26.13
2017-05-30T06:23:54.366Z,26.27
2017-05-30T06:24:54.299Z,26.32
2017-05-30T06:25:54.288Z,26.38
2017-05-30T06:26:54.331Z,26.31
2017-05-30T06:27:54.268Z,26.38
2017-05-30T06:28:54.248Z,26.5
2017-05-30T06:29:54.238Z,26.73
2017-05-30T06:30:54.236Z,26.79
2017-05-30T06:31:54.230Z,26.66
2017-05-30T06:32:54.211Z,26.5
2017-05-30T06:33:54.254Z,26.56
2017-05-30T06:34:54.177Z,26.51
2017-05-30T06:35:54.177Z,26.61
2017-05-30T06:36:54.155Z,26.59
2017-05-30T06:37:54.145Z,26.66
2017-05-30T06:38:54.131Z,26.57
2017-05-30T06:39:54.117Z,26.75
2017-05-30T06:40:54.100Z,26.97
2017-05-30T06:41:54.089Z,27.13
2017-05-30T06:42:54.083Z,27.09
2017-05-30T06:43:54.066Z,27.18
2017-05-30T06:44:54.309Z,27.33
2017-05-30T06:45:54.041Z,27.61
2017-05-30T06:46:54.029Z,27.76
2017-05-30T06:47:54.023Z,27.96
2017-05-30T06:48:54.012Z,28.27
2017-05-30T06:49:54.011Z,28.54
2017-05-30T06:50:53.987Z,28.64
2017-05-30T06:51:53.978Z,28.64
2017-05-30T06:52:53.965Z,28.69
2017-05-30T06:53:53.964Z,28.65
2017-05-30T06:54:53.947Z,28.4
2017-05-30T06:55:53.939Z,28.3
2017-05-30T06:56:53.928Z,27.99
2017-05-30T06:57:53.915Z,27.77
2017-05-30T06:58:53.903Z,27.34
2017-05-30T06:59:53.891Z,27.09
2017-05-30T07:00:53.877Z,26.84
2017-05-30T07:01:53.885Z,26.49
2017-05-30T07:02:53.932Z,26.31
2017-05-30T07:03:53.850Z,26.12
2017-05-30T07:04:53.835Z,26
2017-05-30T07:05:53.820Z,25.9
2017-05-30T07:06:53.805Z,25.82
2017-05-30T07:07:53.793Z,25.74
2017-05-30T07:08:53.781Z,25.51
2017-05-30T07:09:53.808Z,25.31
2017-05-30T07:10:53.750Z,25.3
2017-05-30T07:11:53.742Z,25.31
2017-05-30T07:12:53.727Z,25.17
2017-05-30T07:13:53.727Z,25.19
2017-05-30T07:14:53.708Z,25.14
2017-05-30T07:15:53.683Z,25.04
2017-05-30T07:16:53.686Z,25.04
2017-05-30T07:17:53.660Z,25.01
2017-05-30T07:18:53.657Z,25.01
2017-05-30T07:19:53.628Z,24.94
2017-05-30T07:20:53.637Z,25.01
2017-05-30T07:21:53.603Z,25.07
2017-05-30T07:22:53.646Z,25.02
2017-05-30T07:23:53.577Z,25.08
2017-05-30T07:24:53.552Z,25.12
2017-05-30T07:25:53.533Z,24.99
2017-05-30T07:26:53.525Z,25.05
2017-05-30T07:27:53.517Z,25.07
2017-05-30T07:28:53.501Z,25.36
2017-05-30T07:29:53.540Z,25.53
2017-05-30T07:30:53.470Z,25.75
2017-05-30T07:31:53.464Z,25.79
2017-05-30T07:32:53.444Z,25.85
2017-05-30T07:33:53.433Z,25.78
2017-05-30T07:34:53.110Z,25.89
2017-05-30T07:35:53.402Z,25.81
2017-05-30T07:36:53.434Z,25.86
2017-05-30T07:37:53.374Z,25.81
2017-05-30T07:38:53.359Z,25.91
2017-05-30T07:39:53.344Z,26.01
2017-05-30T07:40:53.336Z,26.53
2017-05-30T07:41:53.315Z,27.01
2017-05-30T07:42:53.310Z,27.34
2017-05-30T07:43:53.291Z,27.81
2017-05-30T07:44:53.280Z,28.24
2017-05-30T07:45:52.960Z,28.54
2017-05-30T07:46:53.255Z,28.94
2017-05-30T07:47:53.239Z,29.12
2017-05-30T07:48:53.242Z,29.44
2017-05-30T07:49:52.921Z,29.74
2017-05-30T07:50:53.211Z,29.86
2017-05-30T07:51:53.258Z,29.97
2017-05-30T07:52:53.193Z,30.21
2017-05-30T07:53:53.178Z,30.46
2017-05-30T07:54:53.169Z,30.85
2017-05-30T07:55:52.855Z,31
2017-05-30T07:56:53.161Z,31.28
2017-05-30T07:57:53.194Z,31.59
2017-05-30T07:58:53.139Z,31.67
2017-05-30T07:59:53.133Z,31.84
2017-05-30T08:00:53.120Z,31.87
2017-05-30T08:01:53.114Z,31.94
2017-05-30T08:02:53.106Z,31.68
2017-05-30T08:03:53.101Z,31.53
2017-05-30T08:04:53.096Z,31.41
2017-05-30T08:05:53.080Z,31.31
2017-05-30T08:06:53.071Z,31.37
2017-05-30T08:07:53.085Z,31.31
2017-05-30T08:08:52.766Z,31.34
2017-05-30T08:09:53.060Z,31.5
2017-05-30T08:10:52.798Z,31.85
2017-05-30T08:11:53.045Z,32.03
2017-05-30T08:12:53.040Z,32.27
2017-05-30T08:13:53.031Z,32.5
2017-05-30T08:14:53.028Z,32.71
2017-05-30T08:15:52.765Z,32.83
2017-05-30T08:16:53.006Z,32.87
2017-05-30T08:17:53.005Z,32.88
2017-05-30T08:18:53.003Z,33.15
2017-05-30T08:19:53.001Z,33.38
2017-05-30T08:20:53.044Z,33.5
2017-05-30T08:21:52.981Z,33.65
2017-05-30T08:22:53.031Z,33.82
2017-05-30T08:23:52.986Z,34.05
2017-05-30T08:24:52.976Z,34.26
2017-05-30T08:25:52.966Z,34.27
2017-05-30T08:26:52.960Z,34.3
2017-05-30T08:27:53.004Z,34.31
2017-05-30T08:28:52.959Z,34.42
2017-05-30T08:29:52.947Z,34.37
2017-05-30T08:30:52.939Z,34.43
2017-05-30T08:31:52.643Z,34.33
2017-05-30T08:32:52.934Z,34.06
2017-05-30T08:33:52.935Z,33.96
2017-05-30T08:34:52.931Z,33.81
2017-05-30T08:35:52.927Z,33.86
2017-05-30T08:36:52.926Z,33.63
2017-05-30T08:37:52.922Z,33.59
2017-05-30T08:38:52.959Z,33.75
2017-05-30T08:39:52.909Z,33.79
2017-05-30T08:40:52.905Z,33.77
2017-05-30T08:41:52.944Z,34.01
2017-05-30T08:42:52.900Z,34.15
2017-05-30T08:43:52.893Z,34.34
2017-05-30T08:44:52.894Z,34.31
2017-05-30T08:45:52.892Z,34.14
2017-05-30T08:46:52.882Z,33.77
2017-05-30T08:47:52.581Z,33.65
2017-05-30T08:48:52.876Z,33.24
2017-05-30T08:49:52.273Z,33
2017-05-30T08:50:52.558Z,32.46
2017-05-30T08:51:52.862Z,32.39
2017-05-30T08:52:52.852Z,32.44
2017-05-30T08:53:52.856Z,32.65
2017-05-30T08:54:52.544Z,33.03
2017-05-30T08:55:52.845Z,33.26
2017-05-30T08:56:52.832Z,33.55
2017-05-30T08:57:52.881Z,33.59
2017-05-30T08:58:52.837Z,33.7
2017-05-30T08:59:52.830Z,33.92
2017-05-30T09:00:52.817Z,34.05
2017-05-30T09:01:52.817Z,34.21
2017-05-30T09:02:52.810Z,34.37
2017-05-30T09:03:52.804Z,34.36
2017-05-30T09:04:52.803Z,34.42
2017-05-30T09:05:52.797Z,34.4
2017-05-30T09:06:52.784Z,34.48
2017-05-30T09:07:52.837Z,34.52
2017-05-30T09:08:52.783Z,34.55
2017-05-30T09:09:52.779Z,34.56
2017-05-30T09:10:52.779Z,34.58
2017-05-30T09:11:52.774Z,34.38
2017-05-30T09:12:52.778Z,34.31
2017-05-30T09:13:52.817Z,34
2017-05-30T09:14:52.769Z,33.89
2017-05-30T09:15:52.762Z,33.77
2017-05-30T09:16:52.804Z,33.65
2017-05-30T09:17:52.752Z,33.6
2017-05-30T09:18:52.752Z,33.62
2017-05-30T09:19:52.805Z,33.62
2017-05-30T09:20:52.739Z,33.75
2017-05-30T09:21:52.740Z,33.81
2017-05-30T09:22:52.743Z,34.05
2017-05-30T09:23:52.783Z,34.37
2017-05-30T09:24:53.026Z,34.48
2017-05-30T09:25:52.733Z,34.42
2017-05-30T09:26:52.733Z,34.43
2017-05-30T09:27:52.727Z,34.34
2017-05-30T09:28:52.713Z,34.15
2017-05-30T09:29:52.717Z,34.19
2017-05-30T09:30:52.755Z,34.23
2017-05-30T09:31:52.703Z,34.21
2017-05-30T09:32:52.713Z,34
2017-05-30T09:33:52.709Z,33.94
2017-05-30T09:34:52.093Z,33.72
2017-05-30T09:35:52.685Z,33.49
2017-05-30T09:36:52.686Z,33.11
2017-05-30T09:37:52.684Z,32.71
2017-05-30T09:38:52.669Z,32.28
2017-05-30T09:39:52.716Z,31.95
2017-05-30T09:40:52.662Z,31.72
2017-05-30T09:41:52.655Z,31.74
2017-05-30T09:42:52.654Z,31.76
2017-05-30T09:43:52.644Z,31.92
2017-05-30T09:44:52.632Z,31.98
2017-05-30T09:45:52.629Z,31.84
2017-05-30T09:46:52.629Z,31.78
2017-05-30T09:47:52.626Z,31.54
2017-05-30T09:48:52.610Z,31.47
2017-05-30T09:49:52.606Z,31.41
2017-05-30T09:50:52.595Z,31.15
2017-05-30T09:51:52.890Z,31.19
2017-05-30T09:52:52.573Z,31.12
2017-05-30T09:53:52.269Z,31.01
2017-05-30T09:54:52.613Z,31.03
2017-05-30T09:55:52.560Z,30.96
2017-05-30T09:56:52.551Z,31.04
2017-05-30T09:57:52.548Z,31.38
2017-05-30T09:58:52.539Z,31.52
2017-05-30T09:59:52.521Z,31.88
2017-05-30T10:00:52.513Z,32.24
2017-05-30T10:01:52.513Z,32.43
2017-05-30T10:02:52.556Z,32.69
2017-05-30T10:03:52.499Z,33
2017-05-30T10:04:52.499Z,33.07
2017-05-30T10:05:52.192Z,33.06
2017-05-30T10:06:52.538Z,33.11
2017-05-30T10:07:52.187Z,33
2017-05-30T10:08:52.476Z,33
2017-05-30T10:09:52.509Z,32.69
2017-05-30T10:10:52.461Z,32.34
2017-05-30T10:11:52.462Z,31.97
2017-05-30T10:12:52.444Z,31.76
2017-05-30T10:13:52.498Z,31.53
2017-05-30T10:14:52.434Z,31.34
2017-05-30T10:15:52.128Z,31.09
2017-05-30T10:16:52.428Z,31.27
2017-05-30T10:17:52.414Z,31.5
2017-05-30T10:18:52.155Z,31.9
2017-05-30T10:19:52.407Z,32.12
2017-05-30T10:20:52.094Z,32.31
2017-05-30T10:21:52.584Z,32.22
2017-05-30T10:22:52.436Z,31.9
2017-05-30T10:23:52.377Z,31.59
2017-05-30T10:24:52.367Z,31.15
2017-05-30T10:25:52.072Z,30.68
2017-05-30T10:26:52.272Z,30.4
2017-05-30T10:27:52.350Z,30.36
2017-05-30T10:28:52.348Z,30.48
2017-05-30T10:29:52.333Z,30.61
2017-05-30T10:30:52.323Z,30.94
2017-05-30T10:31:52.313Z,30.98
2017-05-30T10:32:52.304Z,30.63
2017-05-30T10:33:52.301Z,30.25
2017-05-30T10:34:52.002Z,29.97
2017-05-30T10:35:52.334Z,29.71
2017-05-30T10:36:52.268Z,29.71
2017-05-30T10:37:52.315Z,30.08
2017-05-30T10:38:52.254Z,30.3
2017-05-30T10:39:52.243Z,30.6
2017-05-30T10:40:52.240Z,30.78
2017-05-30T10:41:52.242Z,30.85
2017-05-30T10:42:52.224Z,30.85
2017-05-30T10:43:51.916Z,30.97
2017-05-30T10:44:51.907Z,31.09
2017-05-30T10:45:52.194Z,31.2
2017-05-30T10:46:52.191Z,31.47
2017-05-30T10:47:52.235Z,31.71
2017-05-30T10:48:52.179Z,31.91
2017-05-30T10:49:52.188Z,31.99
2017-05-30T10:50:52.159Z,32.16
2017-05-30T10:51:52.205Z,32.25
2017-05-30T10:52:52.159Z,32.31
2017-05-30T10:53:52.146Z,32.32
2017-05-30T10:54:52.137Z,32.51
2017-05-30T10:55:52.149Z,32.56
2017-05-30T10:56:52.126Z,32.65
2017-05-30T10:57:52.119Z,32.69
2017-05-30T10:58:52.118Z,32.49
2017-05-30T10:59:52.107Z,32.54
2017-05-30T11:00:51.808Z,32.49
2017-05-30T11:01:52.151Z,32.43
2017-05-30T11:02:52.091Z,32.21
2017-05-30T11:03:52.087Z,32.13
2017-05-30T11:04:52.076Z,31.95
2017-05-30T11:05:51.767Z,31.88
2017-05-30T11:06:51.761Z,31.72
2017-05-30T11:07:52.053Z,31.35
2017-05-30T11:08:52.052Z,31.04
2017-05-30T11:09:51.743Z,30.75
2017-05-30T11:10:52.039Z,30.44
2017-05-30T11:11:51.735Z,30.08
2017-05-30T11:12:52.032Z,29.84
2017-05-30T11:13:52.018Z,29.52
2017-05-30T11:14:52.008Z,29.41
2017-05-30T11:15:52.005Z,29.3
2017-05-30T11:16:51.687Z,29.3
2017-05-30T11:17:51.975Z,29.12
2017-05-30T11:18:51.977Z,28.92
2017-05-30T11:19:51.962Z,28.94
2017-05-30T11:20:51.654Z,28.83
2017-05-30T11:21:51.942Z,28.74
2017-05-30T11:22:51.935Z,28.61
2017-05-30T11:23:51.924Z,28.5
2017-05-30T11:24:51.917Z,28.48
2017-05-30T11:25:51.917Z,28.4
2017-05-30T11:26:51.637Z,28.3
2017-05-30T11:27:51.941Z,28.38
2017-05-30T11:28:51.269Z,28.25
2017-05-30T11:29:51.866Z,28.15
2017-05-30T11:30:51.854Z,28.06
2017-05-30T11:31:51.832Z,27.96
2017-05-30T11:32:51.825Z,27.88
2017-05-30T11:33:51.806Z,27.86
2017-05-30T11:34:51.806Z,27.81
2017-05-30T11:35:51.787Z,27.71
2017-05-30T11:36:51.783Z,27.72
2017-05-30T11:37:51.458Z,27.53
2017-05-30T11:38:51.753Z,27.45
2017-05-30T11:39:51.734Z,27.48
2017-05-30T11:40:51.722Z,27.31
2017-05-30T11:41:51.910Z,27.34
2017-05-30T11:42:51.394Z,27.28
2017-05-30T11:43:51.697Z,27.23
2017-05-30T11:44:51.681Z,27.09
2017-05-30T11:45:51.360Z,27.15
2017-05-30T11:46:51.643Z,27.13
2017-05-30T11:47:51.328Z,27.15
2017-05-30T11:48:51.631Z,27.18
2017-05-30T11:49:51.604Z,27.38
2017-05-30T11:50:51.283Z,27.43
2017-05-30T11:51:51.583Z,27.52
2017-05-30T11:52:51.570Z,27.69
2017-05-30T11:53:51.549Z,27.74
2017-05-30T11:54:51.532Z,27.83
2017-05-30T11:55:51.522Z,27.8
2017-05-30T11:56:51.820Z,27.77
2017-05-30T11:57:51.500Z,27.76
2017-05-30T11:58:51.483Z,27.69
2017-05-30T11:59:51.472Z,27.48
2017-05-30T12:00:51.474Z,27.42
2017-05-30T12:01:51.448Z,27.35
2017-05-30T12:02:51.428Z,27.13
2017-05-30T12:03:51.114Z,26.88
2017-05-30T12:04:51.106Z,26.6
2017-05-30T12:05:51.394Z,26.13
2017-05-30T12:06:51.378Z,25.93
2017-05-30T12:07:51.358Z,25.69
2017-05-30T12:08:51.356Z,25.46
2017-05-30T12:09:51.339Z,25.23
2017-05-30T12:10:51.318Z,24.93
2017-05-30T12:11:51.000Z,24.77
2017-05-30T12:12:51.292Z,24.48
2017-05-30T12:13:50.964Z,24.27
2017-05-30T12:14:51.259Z,24.15
2017-05-30T12:15:51.243Z,24.19
2017-05-30T12:16:51.224Z,24.15
2017-05-30T12:17:51.220Z,24.11
2017-05-30T12:18:51.205Z,23.96
2017-05-30T12:19:51.177Z,23.97
2017-05-30T12:20:50.857Z,23.84
2017-05-30T12:21:51.154Z,23.86
2017-05-30T12:22:50.834Z,23.78
2017-05-30T12:23:51.114Z,23.75
2017-05-30T12:24:51.204Z,23.86
2017-05-30T12:25:51.078Z,23.94
2017-05-30T12:26:51.063Z,23.99
2017-05-30T12:27:51.096Z,24.23
2017-05-30T12:28:50.433Z,24.24
2017-05-30T12:29:50.715Z,24.29
2017-05-30T12:30:50.703Z,24.37
2017-05-30T12:31:50.989Z,24.41
2017-05-30T12:32:50.976Z,24.42
2017-05-30T12:33:51.008Z,24.44
2017-05-30T12:34:50.934Z,24.42
2017-05-30T12:35:50.920Z,24.45
2017-05-30T12:36:50.912Z,24.34
2017-05-30T12:37:50.899Z,24.37
2017-05-30T12:38:50.878Z,24.48
2017-05-30T12:39:50.854Z,24.55
2017-05-30T12:40:50.842Z,24.52
2017-05-30T12:41:50.821Z,24.63
2017-05-30T12:42:50.805Z,24.66
2017-05-30T12:43:50.482Z,24.75
2017-05-30T12:44:50.773Z,24.8
2017-05-30T12:45:50.759Z,24.87
2017-05-30T12:46:50.744Z,24.94
2017-05-30T12:47:50.722Z,25.07
2017-05-30T12:48:50.714Z,25.01
2017-05-30T12:49:50.695Z,25.07
2017-05-30T12:50:50.682Z,25.05
2017-05-30T12:51:50.375Z,25.02
2017-05-30T12:52:50.656Z,25.16
2017-05-30T12:53:50.375Z,25.17
2017-05-30T12:54:50.615Z,25.04